SRCO2: Rock Creek nr Sulphur 2SW

Data processed at Mon Sep 24 2018 21:32


All information presented herein is the property of the government of the United States of America and may be revised or deleted at any time without prior notice.
Dissemination of this information without the expressed written consent of the Public Affairs Office, Tulsa District U.S. Army Corps of Engineers is strictly prohibited.
These data are gathered electronically and, as presented, have not undergone any form of quality control. These data are not guaranteed to be valid or correct.
Go to home page.
Go to station list.
Go to home page.

Downstream station:


Previous Day
Next Day
Current Day
    
SHEF ID:       SRCO2     Rock Creek at Sulphur, OK
STATION TYPE:  

                STAGE  RIV-FLOW  BAT-LOAD
                   ft       cfs      volt
              Ccp-Rev   Ccp-Rev   Ccp-Rev
(US/Central)
09/24 00:00      8.01       292     12.57
09/24 01:00      7.48       174     12.57
09/24 02:00      7.48       174     12.57
09/24 03:00      7.46       170     12.57
09/24 04:00      7.37       154     12.57
09/24 05:00      7.41       161     12.49
09/24 06:00      7.49       176     12.49
09/24 07:00      7.45       168     12.49
09/24 08:00      7.49       176     12.49
09/24 09:00      7.40       159     12.57
09/24 10:00      7.32       146     12.73
09/24 11:00      7.30       142     12.89
09/24 12:00      7.40       159     12.97
09/24 13:00      7.34       149     13.21
09/24 14:00      7.30       142     13.29
09/24 15:00      7.42       163     13.13
09/24 16:00      7.33       147     13.29
09/24 17:00      7.32       146     13.37
09/24 18:00      7.36       152     13.21
09/24 19:00      7.34       149     12.81
09/24 20:00      7.42       163     12.65
09/24 21:00      ----      ----      ----
09/24 22:00      ----      ----      ----
09/24 23:00      ----      ----      ----